Down Up Stop Top

TXC259
There are no active watches, warnings or advisories

Record high temperature 126.3°F Record low temperature 13.3°F Record high gust 49.5 mph Record high average 32.4 mph Record daily rain 4.23 in. Record low windchill 4.3°F Record high barometer 30.667 in. Record low barometer 28.496 in.
Daily high pressure 30.283 in. Daily low pressure 30.224 in. Daily low windchill 27.3°F Daily high heat index 30.0°F Daily high gust speed 4.0 mph ESE Daily high average speed 2.9 mph ESE
Welfare-Texas Weather
LAST READING AT TIME: 08:55 DATE: March 02 2015, time of next update: 09:00
Current WeatherDry Current Temperature 30.0°F (-1.1°C), Apparent temp 24.6°F
Maximum Temperature (since midnight)30.0°F at: 00:00 Minimum Temperature (since midnight)30.0°F at: 00:00
Average windspeed (ten minute)2.9 mph Wind Direction (ten minute)ESE (112°)
Windchill Temperature 27.3°F Maximum Gust (last hour)4.0 mph at: 07:55
Maximum Gust (since midnight)4.0 mph at: 00:01 Maximum 1 minute average (since midnight)2.9 mph at: 00:00
Rainfall (last hour)0.00 in. (0.0 mm) Rainfall (since midnight)0.04 in. (1.0 mm) at 07:38
Rainfall This month 0.12 in. (3.0 mm) Rainfall To date this year 3.89 in. (98.8 mm)
Maximum rain per minute (last hour)0.00 in/min Maximum rain per hour (last 6 hours)0.04 in/hour
Yesterdays rainfall 0.08 in DewPoint 14.1°F (Wet Bulb :25.5°F )
Humidity 51 %, Humidex 22.9°F Barometer corrected to msl30.224 in. (1023.5 hPa)
Pressure change 0.00 in. (last hour) Trend (last hour)STEADY
Pressure change (last 12 hours)+0.00 in Pressure change (last 6 hours)+0.00 in

This page is updated from recent data collected by a WMR200 weather station Use the Reload or Refresh facility on your browser to retrieve the latest data.


Click here for the last 24 hour graph
Click here for the last 48 hour graph
Click here for the last 72 hour graph
Click here for the month to date graph


Weather report/warning/Metars

SAN ANTONIO INTERNATIONAL  AIRPORT , TX, United States (KSAT) 29-32N 098-28W 243M
Mar 02, 2015 - 08:57 AM EST / 2015.03.02 1357 UTC
Wind: from the N (010 degrees) at 10 MPH (9 KT):0
Visibility: 7 mile(s):0
Sky conditions: overcast
Weather: light drizzle
Precipitation last hour: A trace
Temperature: 42.1 F (5.6 C)
Dew Point: 39.0 F (3.9 C)
Relative Humidity: 88%
Pressure (altimeter): 30.31 in. Hg (1026 hPa)
ob: KSAT 021357Z 01009KT 7SM -DZ BKN008 OVC015 06/04 A3031 RMK AO2 P0000 T00560039
cycle: 14
NEW BRAUNFELS MUNICIPAL AIRPORT, TX, United States (KBAZ) 29-43N 98-03W 195M
Mar 02, 2015 - 09:37 AM EST / 2015.03.02 1437 UTC
Wind: from the NNE (020 degrees) at 13 MPH (11 KT):0
Visibility: 10 mile(s):0
Sky conditions: overcast
Temperature: 41.0 F (5.0 C)
Dew Point: 39.9 F (4.4 C)
Relative Humidity: 95%
Pressure (altimeter): 30.32 in. Hg (1026 hPa)
ob: KBAZ 021437Z 02011KT 10SM OVC008 05/04 A3032 RMK AO2 T00500044
cycle: 14
Kerrville, Kerrville Municipal Airport/Louis Schreiner Field, TX, United States (KERV) 29-58N 099-05W
Mar 02, 2015 - 09:35 AM EST / 2015.03.02 1435 UTC
Wind: from the N (360 degrees) at 5 MPH (4 KT):0
Visibility: 10 mile(s):0
Sky conditions: overcast
Temperature: 36.9 F (2.7 C)
Dew Point: 35.4 F (1.9 C)
Relative Humidity: 94%
Pressure (altimeter): 30.31 in. Hg (1026 hPa)
ob: KERV 021435Z AUTO 36004KT 10SM OVC006 03/02 A3031 RMK AO2 T00270019
cycle: 14
BANGOR INT'L AIRPORT, ME, United States (KBGR) 44-48N 068-49W 57M
Mar 02, 2015 - 09:38 AM EST / 2015.03.02 1438 UTC
Wind: from the NW (310 degrees) at 5 MPH (4 KT):0
Visibility: 2 mile(s):0
Sky conditions: overcast
Weather: light snow; mist
Precipitation last hour: A trace
Temperature: 25.0 F (-3.9 C)
Windchill: 19 F (-7 C):1
Dew Point: 21.0 F (-6.1 C)
Relative Humidity: 84%
Pressure (altimeter): 29.82 in. Hg (1009 hPa)
ob: KBGR 021438Z 31004KT 2SM -SN BR FEW010 BKN028 OVC038 M04/M06 A2982 RMK AO2 P0000 T10391061
cycle: 14



The data is logged at two minute intervals, but there is data recorded every minute.

Use the RELOAD facility on your browser to retrieve the latest data.

Click here for a daily update of the averages/extremes to date for the month


Created by "Weather Display" software version 10.37R Build 23 at this start time/date 06:34 6/14/2014